sensor_id;sensor_type;location;lat;lon;timestamp;P1;durP1;ratioP1;P2;durP2;ratioP2
72895;SDS011;61036;53.224;6.554;2023-02-15T00:01:17;54.67;;;37.27;;
72895;SDS011;61036;53.224;6.554;2023-02-15T00:03:42;53.53;;;35.77;;
72895;SDS011;61036;53.224;6.554;2023-02-15T00:06:08;51.77;;;35.77;;
72895;SDS011;61036;53.224;6.554;2023-02-15T00:08:33;53.07;;;35.77;;
72895;SDS011;61036;53.224;6.554;2023-02-15T00:11:05;54.03;;;37.90;;
72895;SDS011;61036;53.224;6.554;2023-02-15T00:13:35;53.93;;;37.70;;
72895;SDS011;61036;53.224;6.554;2023-02-15T00:16:10;63.00;;;41.50;;
72895;SDS011;61036;53.224;6.554;2023-02-15T00:18:38;57.47;;;39.23;;
72895;SDS011;61036;53.224;6.554;2023-02-15T00:21:05;59.70;;;38.83;;
72895;SDS011;61036;53.224;6.554;2023-02-15T00:23:32;53.17;;;38.00;;
72895;SDS011;61036;53.224;6.554;2023-02-15T00:26:08;51.90;;;35.93;;
72895;SDS011;61036;53.224;6.554;2023-02-15T00:28:39;53.43;;;37.23;;
72895;SDS011;61036;53.224;6.554;2023-02-15T00:31:08;54.20;;;38.13;;
72895;SDS011;61036;53.224;6.554;2023-02-15T00:33:35;59.37;;;39.37;;
72895;SDS011;61036;53.224;6.554;2023-02-15T00:36:02;57.83;;;37.93;;
72895;SDS011;61036;53.224;6.554;2023-02-15T00:38:30;61.80;;;38.33;;
72895;SDS011;61036;53.224;6.554;2023-02-15T00:40:56;54.97;;;39.27;;
72895;SDS011;61036;53.224;6.554;2023-02-15T00:43:24;58.23;;;39.37;;
72895;SDS011;61036;53.224;6.554;2023-02-15T00:45:53;60.80;;;40.20;;
72895;SDS011;61036;53.224;6.554;2023-02-15T00:48:21;60.77;;;42.97;;
72895;SDS011;61036;53.224;6.554;2023-02-15T00:50:50;62.03;;;41.23;;
72895;SDS011;61036;53.224;6.554;2023-02-15T00:53:18;53.30;;;37.37;;
72895;SDS011;61036;53.224;6.554;2023-02-15T00:55:45;58.67;;;39.27;;
72895;SDS011;61036;53.224;6.554;2023-02-15T00:58:11;57.67;;;38.30;;
72895;SDS011;61036;53.224;6.554;2023-02-15T01:00:38;57.77;;;39.03;;
72895;SDS011;61036;53.224;6.554;2023-02-15T01:03:06;53.90;;;37.30;;
72895;SDS011;61036;53.224;6.554;2023-02-15T01:05:32;53.03;;;37.23;;
72895;SDS011;61036;53.224;6.554;2023-02-15T01:07:58;53.57;;;36.73;;
72895;SDS011;61036;53.224;6.554;2023-02-15T01:10:24;54.60;;;36.53;;
72895;SDS011;61036;53.224;6.554;2023-02-15T01:12:50;52.77;;;35.20;;
72895;SDS011;61036;53.224;6.554;2023-02-15T01:15:16;50.43;;;33.93;;
72895;SDS011;61036;53.224;6.554;2023-02-15T01:17:42;53.33;;;36.17;;
72895;SDS011;61036;53.224;6.554;2023-02-15T01:20:11;54.57;;;37.43;;
72895;SDS011;61036;53.224;6.554;2023-02-15T01:22:37;55.20;;;37.43;;
72895;SDS011;61036;53.224;6.554;2023-02-15T01:25:03;56.43;;;38.00;;
72895;SDS011;61036;53.224;6.554;2023-02-15T01:27:28;53.93;;;36.77;;
72895;SDS011;61036;53.224;6.554;2023-02-15T01:29:56;54.70;;;38.33;;
72895;SDS011;61036;53.224;6.554;2023-02-15T01:32:21;62.90;;;40.93;;
72895;SDS011;61036;53.224;6.554;2023-02-15T01:34:47;58.87;;;39.93;;
72895;SDS011;61036;53.224;6.554;2023-02-15T01:37:18;57.67;;;37.47;;
72895;SDS011;61036;53.224;6.554;2023-02-15T01:39:44;54.60;;;37.30;;
72895;SDS011;61036;53.224;6.554;2023-02-15T01:42:10;53.17;;;36.67;;
72895;SDS011;61036;53.224;6.554;2023-02-15T01:52:49;59.53;;;39.87;;
72895;SDS011;61036;53.224;6.554;2023-02-15T01:55:23;58.53;;;38.37;;
72895;SDS011;61036;53.224;6.554;2023-02-15T01:57:51;55.03;;;38.20;;
72895;SDS011;61036;53.224;6.554;2023-02-15T02:00:18;56.00;;;38.30;;
72895;SDS011;61036;53.224;6.554;2023-02-15T02:02:46;58.10;;;39.40;;
72895;SDS011;61036;53.224;6.554;2023-02-15T02:05:14;53.40;;;37.97;;
72895;SDS011;61036;53.224;6.554;2023-02-15T02:07:41;56.27;;;38.53;;
72895;SDS011;61036;53.224;6.554;2023-02-15T02:10:11;57.43;;;39.53;;
72895;SDS011;61036;53.224;6.554;2023-02-15T02:12:38;61.40;;;40.90;;
72895;SDS011;61036;53.224;6.554;2023-02-15T02:15:07;67.90;;;42.97;;
72895;SDS011;61036;53.224;6.554;2023-02-15T02:20:26;57.20;;;39.40;;
72895;SDS011;61036;53.224;6.554;2023-02-15T02:36:29;59.13;;;38.73;;
72895;SDS011;61036;53.224;6.554;2023-02-15T02:46:59;60.60;;;40.00;;
72895;SDS011;61036;53.224;6.554;2023-02-15T02:49:32;55.07;;;36.40;;
72895;SDS011;61036;53.224;6.554;2023-02-15T02:52:05;53.40;;;37.17;;
72895;SDS011;61036;53.224;6.554;2023-02-15T02:54:50;58.07;;;38.83;;
72895;SDS011;61036;53.224;6.554;2023-02-15T02:57:16;52.07;;;36.40;;
72895;SDS011;61036;53.224;6.554;2023-02-15T02:59:44;54.77;;;38.87;;
72895;SDS011;61036;53.224;6.554;2023-02-15T03:02:16;58.13;;;37.90;;
72895;SDS011;61036;53.224;6.554;2023-02-15T03:04:47;52.43;;;37.03;;
72895;SDS011;61036;53.224;6.554;2023-02-15T03:07:24;55.93;;;38.37;;
72895;SDS011;61036;53.224;6.554;2023-02-15T03:09:54;58.80;;;40.47;;
72895;SDS011;61036;53.224;6.554;2023-02-15T03:12:35;55.90;;;39.13;;
72895;SDS011;61036;53.224;6.554;2023-02-15T03:15:04;60.10;;;40.03;;
72895;SDS011;61036;53.224;6.554;2023-02-15T03:17:49;55.87;;;40.10;;
72895;SDS011;61036;53.224;6.554;2023-02-15T03:20:25;54.57;;;38.27;;
72895;SDS011;61036;53.224;6.554;2023-02-15T03:23:00;53.10;;;36.80;;
72895;SDS011;61036;53.224;6.554;2023-02-15T03:26:03;51.93;;;37.23;;
72895;SDS011;61036;53.224;6.554;2023-02-15T03:28:29;49.40;;;34.43;;
72895;SDS011;61036;53.224;6.554;2023-02-15T03:31:01;51.30;;;36.03;;
72895;SDS011;61036;53.224;6.554;2023-02-15T03:33:31;53.57;;;36.87;;
72895;SDS011;61036;53.224;6.554;2023-02-15T03:36:16;52.37;;;39.03;;
72895;SDS011;61036;53.224;6.554;2023-02-15T03:38:53;51.23;;;36.27;;
72895;SDS011;61036;53.224;6.554;2023-02-15T03:41:24;53.03;;;37.30;;
72895;SDS011;61036;53.224;6.554;2023-02-15T03:43:58;53.67;;;38.27;;
72895;SDS011;61036;53.224;6.554;2023-02-15T03:46:31;54.20;;;38.03;;
72895;SDS011;61036;53.224;6.554;2023-02-15T03:49:24;56.20;;;38.33;;
72895;SDS011;61036;53.224;6.554;2023-02-15T03:51:50;53.93;;;38.93;;
72895;SDS011;61036;53.224;6.554;2023-02-15T03:54:24;48.50;;;36.50;;
72895;SDS011;61036;53.224;6.554;2023-02-15T03:57:12;45.20;;;33.03;;
72895;SDS011;61036;53.224;6.554;2023-02-15T03:59:58;46.90;;;33.13;;
72895;SDS011;61036;53.224;6.554;2023-02-15T04:05:38;47.07;;;35.10;;
72895;SDS011;61036;53.224;6.554;2023-02-15T04:08:04;49.07;;;35.07;;
72895;SDS011;61036;53.224;6.554;2023-02-15T04:10:30;53.83;;;36.27;;
72895;SDS011;61036;53.224;6.554;2023-02-15T04:13:14;50.40;;;34.10;;
72895;SDS011;61036;53.224;6.554;2023-02-15T04:15:40;50.23;;;35.93;;
72895;SDS011;61036;53.224;6.554;2023-02-15T04:18:24;52.03;;;36.77;;
72895;SDS011;61036;53.224;6.554;2023-02-15T04:21:08;58.77;;;41.07;;
72895;SDS011;61036;53.224;6.554;2023-02-15T04:23:52;57.80;;;41.77;;
72895;SDS011;61036;53.224;6.554;2023-02-15T04:26:36;53.50;;;37.03;;
72895;SDS011;61036;53.224;6.554;2023-02-15T04:29:02;54.03;;;36.87;;
72895;SDS011;61036;53.224;6.554;2023-02-15T04:31:27;58.07;;;39.47;;
72895;SDS011;61036;53.224;6.554;2023-02-15T04:33:53;49.80;;;36.30;;
72895;SDS011;61036;53.224;6.554;2023-02-15T04:36:20;51.20;;;37.53;;
72895;SDS011;61036;53.224;6.554;2023-02-15T04:38:46;55.30;;;39.20;;
72895;SDS011;61036;53.224;6.554;2023-02-15T04:41:11;53.43;;;36.93;;
72895;SDS011;61036;53.224;6.554;2023-02-15T04:43:40;55.77;;;38.63;;
72895;SDS011;61036;53.224;6.554;2023-02-15T04:46:06;54.30;;;37.37;;
72895;SDS011;61036;53.224;6.554;2023-02-15T04:48:31;52.63;;;37.17;;
72895;SDS011;61036;53.224;6.554;2023-02-15T04:50:57;49.53;;;36.63;;
72895;SDS011;61036;53.224;6.554;2023-02-15T04:53:22;52.60;;;37.00;;
72895;SDS011;61036;53.224;6.554;2023-02-15T04:55:48;51.10;;;34.87;;
72895;SDS011;61036;53.224;6.554;2023-02-15T04:58:13;48.10;;;34.60;;
72895;SDS011;61036;53.224;6.554;2023-02-15T05:00:39;55.23;;;39.83;;
72895;SDS011;61036;53.224;6.554;2023-02-15T05:03:04;53.67;;;37.77;;
72895;SDS011;61036;53.224;6.554;2023-02-15T05:05:30;52.20;;;36.70;;
72895;SDS011;61036;53.224;6.554;2023-02-15T05:07:55;51.07;;;38.80;;
72895;SDS011;61036;53.224;6.554;2023-02-15T05:10:21;51.73;;;37.23;;
72895;SDS011;61036;53.224;6.554;2023-02-15T05:12:50;54.67;;;38.67;;
72895;SDS011;61036;53.224;6.554;2023-02-15T05:15:15;59.57;;;40.20;;
72895;SDS011;61036;53.224;6.554;2023-02-15T05:17:41;60.63;;;41.83;;
72895;SDS011;61036;53.224;6.554;2023-02-15T05:20:07;53.67;;;38.03;;
72895;SDS011;61036;53.224;6.554;2023-02-15T05:22:33;63.33;;;42.30;;
72895;SDS011;61036;53.224;6.554;2023-02-15T05:24:58;57.77;;;40.13;;
72895;SDS011;61036;53.224;6.554;2023-02-15T05:27:42;58.93;;;40.20;;
72895;SDS011;61036;53.224;6.554;2023-02-15T05:30:26;61.33;;;41.43;;
72895;SDS011;61036;53.224;6.554;2023-02-15T05:32:52;67.10;;;44.20;;
72895;SDS011;61036;53.224;6.554;2023-02-15T05:35:17;66.83;;;44.87;;
72895;SDS011;61036;53.224;6.554;2023-02-15T05:37:42;58.13;;;41.30;;
72895;SDS011;61036;53.224;6.554;2023-02-15T05:40:08;65.73;;;44.80;;
72895;SDS011;61036;53.224;6.554;2023-02-15T05:42:34;66.47;;;46.60;;
72895;SDS011;61036;53.224;6.554;2023-02-15T05:44:59;77.23;;;49.70;;
72895;SDS011;61036;53.224;6.554;2023-02-15T05:47:25;79.43;;;48.90;;
72895;SDS011;61036;53.224;6.554;2023-02-15T05:49:50;75.93;;;51.43;;
72895;SDS011;61036;53.224;6.554;2023-02-15T05:52:16;81.33;;;51.13;;
72895;SDS011;61036;53.224;6.554;2023-02-15T05:54:41;76.03;;;49.67;;
72895;SDS011;61036;53.224;6.554;2023-02-15T05:57:07;71.10;;;46.90;;
72895;SDS011;61036;53.224;6.554;2023-02-15T05:59:34;68.23;;;46.43;;
72895;SDS011;61036;53.224;6.554;2023-02-15T06:02:00;72.13;;;47.83;;
72895;SDS011;61036;53.224;6.554;2023-02-15T06:04:25;74.10;;;48.70;;
72895;SDS011;61036;53.224;6.554;2023-02-15T06:06:51;70.33;;;48.23;;
72895;SDS011;61036;53.224;6.554;2023-02-15T06:09:19;68.13;;;46.63;;
72895;SDS011;61036;53.224;6.554;2023-02-15T06:11:45;73.00;;;50.37;;
72895;SDS011;61036;53.224;6.554;2023-02-15T06:14:11;69.43;;;46.90;;
72895;SDS011;61036;53.224;6.554;2023-02-15T06:16:36;76.93;;;49.43;;
72895;SDS011;61036;53.224;6.554;2023-02-15T06:19:02;64.67;;;45.90;;
72895;SDS011;61036;53.224;6.554;2023-02-15T06:21:28;64.17;;;45.47;;
72895;SDS011;61036;53.224;6.554;2023-02-15T06:23:55;65.07;;;45.17;;
72895;SDS011;61036;53.224;6.554;2023-02-15T06:26:20;64.37;;;45.93;;
72895;SDS011;61036;53.224;6.554;2023-02-15T06:28:48;70.07;;;48.33;;
72895;SDS011;61036;53.224;6.554;2023-02-15T06:31:14;67.20;;;45.57;;
72895;SDS011;61036;53.224;6.554;2023-02-15T06:33:40;71.37;;;46.93;;
72895;SDS011;61036;53.224;6.554;2023-02-15T06:36:05;62.90;;;44.57;;
72895;SDS011;61036;53.224;6.554;2023-02-15T06:38:31;62.23;;;44.00;;
72895;SDS011;61036;53.224;6.554;2023-02-15T06:40:57;58.53;;;41.87;;
72895;SDS011;61036;53.224;6.554;2023-02-15T06:43:22;55.67;;;41.37;;
72895;SDS011;61036;53.224;6.554;2023-02-15T06:45:50;62.93;;;44.07;;
72895;SDS011;61036;53.224;6.554;2023-02-15T06:48:17;62.40;;;43.97;;
72895;SDS011;61036;53.224;6.554;2023-02-15T06:50:43;65.47;;;45.63;;
72895;SDS011;61036;53.224;6.554;2023-02-15T06:53:08;62.23;;;45.10;;
72895;SDS011;61036;53.224;6.554;2023-02-15T06:55:34;55.33;;;40.57;;
72895;SDS011;61036;53.224;6.554;2023-02-15T06:57:59;64.77;;;44.10;;
72895;SDS011;61036;53.224;6.554;2023-02-15T07:00:25;58.30;;;41.20;;
72895;SDS011;61036;53.224;6.554;2023-02-15T07:02:57;61.80;;;41.77;;
72895;SDS011;61036;53.224;6.554;2023-02-15T07:05:27;57.10;;;40.40;;
72895;SDS011;61036;53.224;6.554;2023-02-15T07:07:56;56.30;;;40.60;;
72895;SDS011;61036;53.224;6.554;2023-02-15T07:10:22;59.43;;;41.23;;
72895;SDS011;61036;53.224;6.554;2023-02-15T07:12:48;64.27;;;44.13;;
72895;SDS011;61036;53.224;6.554;2023-02-15T07:15:15;60.40;;;41.83;;
72895;SDS011;61036;53.224;6.554;2023-02-15T07:17:42;54.33;;;38.40;;
72895;SDS011;61036;53.224;6.554;2023-02-15T07:20:13;53.23;;;40.50;;
72895;SDS011;61036;53.224;6.554;2023-02-15T07:22:40;56.23;;;39.90;;
72895;SDS011;61036;53.224;6.554;2023-02-15T07:25:06;50.83;;;36.67;;
72895;SDS011;61036;53.224;6.554;2023-02-15T07:27:34;52.53;;;38.60;;
72895;SDS011;61036;53.224;6.554;2023-02-15T07:30:00;56.37;;;40.07;;
72895;SDS011;61036;53.224;6.554;2023-02-15T07:32:29;54.73;;;39.67;;
72895;SDS011;61036;53.224;6.554;2023-02-15T07:34:56;52.53;;;36.07;;
72895;SDS011;61036;53.224;6.554;2023-02-15T07:37:22;53.50;;;35.97;;
72895;SDS011;61036;53.224;6.554;2023-02-15T07:39:48;46.07;;;34.17;;
72895;SDS011;61036;53.224;6.554;2023-02-15T07:42:13;45.10;;;33.40;;
72895;SDS011;61036;53.224;6.554;2023-02-15T07:44:39;44.90;;;31.77;;
72895;SDS011;61036;53.224;6.554;2023-02-15T07:47:05;42.13;;;31.00;;
72895;SDS011;61036;53.224;6.554;2023-02-15T07:49:31;42.57;;;30.83;;
72895;SDS011;61036;53.224;6.554;2023-02-15T07:51:56;45.43;;;32.73;;
72895;SDS011;61036;53.224;6.554;2023-02-15T07:54:22;45.30;;;32.20;;
72895;SDS011;61036;53.224;6.554;2023-02-15T07:56:47;44.77;;;32.83;;
72895;SDS011;61036;53.224;6.554;2023-02-15T07:59:15;42.30;;;30.80;;
72895;SDS011;61036;53.224;6.554;2023-02-15T08:01:41;41.73;;;31.03;;
72895;SDS011;61036;53.224;6.554;2023-02-15T08:04:07;38.57;;;29.30;;
72895;SDS011;61036;53.224;6.554;2023-02-15T08:06:35;44.23;;;29.30;;
72895;SDS011;61036;53.224;6.554;2023-02-15T08:09:05;35.33;;;26.50;;
72895;SDS011;61036;53.224;6.554;2023-02-15T08:11:32;34.57;;;26.53;;
72895;SDS011;61036;53.224;6.554;2023-02-15T08:14:05;36.40;;;26.77;;
72895;SDS011;61036;53.224;6.554;2023-02-15T08:19:35;33.53;;;24.53;;
72895;SDS011;61036;53.224;6.554;2023-02-15T08:22:00;31.33;;;24.37;;
72895;SDS011;61036;53.224;6.554;2023-02-15T08:24:32;32.50;;;23.70;;
72895;SDS011;61036;53.224;6.554;2023-02-15T08:27:00;28.43;;;22.63;;
72895;SDS011;61036;53.224;6.554;2023-02-15T08:29:28;33.23;;;23.97;;
72895;SDS011;61036;53.224;6.554;2023-02-15T08:31:55;34.60;;;24.67;;
72895;SDS011;61036;53.224;6.554;2023-02-15T08:34:27;30.30;;;23.70;;
72895;SDS011;61036;53.224;6.554;2023-02-15T08:36:53;28.93;;;22.97;;
72895;SDS011;61036;53.224;6.554;2023-02-15T08:39:19;31.47;;;24.10;;
72895;SDS011;61036;53.224;6.554;2023-02-15T08:41:47;35.90;;;25.37;;
72895;SDS011;61036;53.224;6.554;2023-02-15T08:44:14;33.30;;;24.77;;
72895;SDS011;61036;53.224;6.554;2023-02-15T08:46:43;30.53;;;23.70;;
72895;SDS011;61036;53.224;6.554;2023-02-15T08:49:11;35.67;;;24.73;;
72895;SDS011;61036;53.224;6.554;2023-02-15T08:51:38;34.27;;;25.70;;
72895;SDS011;61036;53.224;6.554;2023-02-15T08:54:08;34.57;;;24.90;;
72895;SDS011;61036;53.224;6.554;2023-02-15T08:56:37;32.90;;;25.70;;
72895;SDS011;61036;53.224;6.554;2023-02-15T08:59:05;29.90;;;23.40;;
72895;SDS011;61036;53.224;6.554;2023-02-15T09:01:33;30.80;;;22.63;;
72895;SDS011;61036;53.224;6.554;2023-02-15T09:04:06;31.13;;;23.83;;
72895;SDS011;61036;53.224;6.554;2023-02-15T09:06:34;33.80;;;25.33;;
72895;SDS011;61036;53.224;6.554;2023-02-15T09:09:00;34.70;;;24.87;;
72895;SDS011;61036;53.224;6.554;2023-02-15T09:11:27;33.33;;;25.57;;
72895;SDS011;61036;53.224;6.554;2023-02-15T09:13:55;33.33;;;25.60;;
72895;SDS011;61036;53.224;6.554;2023-02-15T09:16:23;33.70;;;24.80;;
72895;SDS011;61036;53.224;6.554;2023-02-15T09:18:51;32.30;;;24.50;;
72895;SDS011;61036;53.224;6.554;2023-02-15T09:21:18;33.77;;;25.20;;
72895;SDS011;61036;53.224;6.554;2023-02-15T09:23:47;31.07;;;22.83;;
72895;SDS011;61036;53.224;6.554;2023-02-15T09:26:15;33.53;;;24.07;;
72895;SDS011;61036;53.224;6.554;2023-02-15T09:28:42;33.90;;;24.70;;
72895;SDS011;61036;53.224;6.554;2023-02-15T09:31:15;32.43;;;24.50;;
72895;SDS011;61036;53.224;6.554;2023-02-15T09:33:43;28.43;;;22.73;;
72895;SDS011;61036;53.224;6.554;2023-02-15T09:36:19;33.63;;;25.27;;
72895;SDS011;61036;53.224;6.554;2023-02-15T09:38:47;32.73;;;23.83;;
72895;SDS011;61036;53.224;6.554;2023-02-15T09:52:43;32.03;;;23.70;;
72895;SDS011;61036;53.224;6.554;2023-02-15T10:11:49;33.20;;;24.60;;
72895;SDS011;61036;53.224;6.554;2023-02-15T10:14:29;34.83;;;24.90;;
72895;SDS011;61036;53.224;6.554;2023-02-15T10:22:36;32.63;;;24.57;;
72895;SDS011;61036;53.224;6.554;2023-02-15T10:27:51;34.63;;;24.63;;
72895;SDS011;61036;53.224;6.554;2023-02-15T10:33:02;35.37;;;25.07;;
72895;SDS011;61036;53.224;6.554;2023-02-15T10:35:38;35.83;;;26.27;;
72895;SDS011;61036;53.224;6.554;2023-02-15T10:43:29;34.43;;;25.23;;
72895;SDS011;61036;53.224;6.554;2023-02-15T10:49:24;36.60;;;27.33;;
72895;SDS011;61036;53.224;6.554;2023-02-15T10:57:28;38.57;;;27.00;;
72895;SDS011;61036;53.224;6.554;2023-02-15T11:02:27;37.57;;;27.40;;
72895;SDS011;61036;53.224;6.554;2023-02-15T11:05:07;41.63;;;29.70;;
72895;SDS011;61036;53.224;6.554;2023-02-15T11:07:49;41.27;;;27.97;;
72895;SDS011;61036;53.224;6.554;2023-02-15T11:10:32;38.30;;;28.10;;
72895;SDS011;61036;53.224;6.554;2023-02-15T11:13:02;41.80;;;29.70;;
72895;SDS011;61036;53.224;6.554;2023-02-15T11:15:35;42.07;;;30.07;;
72895;SDS011;61036;53.224;6.554;2023-02-15T11:18:05;39.63;;;28.60;;
72895;SDS011;61036;53.224;6.554;2023-02-15T11:20:38;41.83;;;28.70;;
72895;SDS011;61036;53.224;6.554;2023-02-15T11:23:19;41.33;;;28.70;;
72895;SDS011;61036;53.224;6.554;2023-02-15T11:25:57;39.40;;;27.83;;
72895;SDS011;61036;53.224;6.554;2023-02-15T11:28:45;40.77;;;28.83;;
72895;SDS011;61036;53.224;6.554;2023-02-15T11:31:20;46.77;;;29.80;;
72895;SDS011;61036;53.224;6.554;2023-02-15T11:34:12;44.33;;;29.17;;
72895;SDS011;61036;53.224;6.554;2023-02-15T11:36:45;42.30;;;29.00;;
72895;SDS011;61036;53.224;6.554;2023-02-15T11:39:15;40.57;;;27.97;;
72895;SDS011;61036;53.224;6.554;2023-02-15T11:41:50;42.00;;;28.00;;
72895;SDS011;61036;53.224;6.554;2023-02-15T11:44:39;39.30;;;27.40;;
72895;SDS011;61036;53.224;6.554;2023-02-15T11:47:21;41.37;;;29.17;;
72895;SDS011;61036;53.224;6.554;2023-02-15T11:49:47;41.53;;;27.90;;
72895;SDS011;61036;53.224;6.554;2023-02-15T11:52:13;41.97;;;28.30;;
72895;SDS011;61036;53.224;6.554;2023-02-15T11:54:42;44.77;;;28.30;;
72895;SDS011;61036;53.224;6.554;2023-02-15T12:00:00;43.10;;;28.07;;
72895;SDS011;61036;53.224;6.554;2023-02-15T12:02:33;40.17;;;28.30;;
72895;SDS011;61036;53.224;6.554;2023-02-15T12:05:09;39.90;;;26.43;;
72895;SDS011;61036;53.224;6.554;2023-02-15T12:07:50;45.33;;;27.77;;
72895;SDS011;61036;53.224;6.554;2023-02-15T12:13:07;42.80;;;27.07;;
72895;SDS011;61036;53.224;6.554;2023-02-15T12:15:34;43.87;;;26.33;;
72895;SDS011;61036;53.224;6.554;2023-02-15T12:18:01;41.90;;;26.37;;
72895;SDS011;61036;53.224;6.554;2023-02-15T12:20:31;37.60;;;25.70;;
72895;SDS011;61036;53.224;6.554;2023-02-15T12:23:02;39.63;;;26.50;;
72895;SDS011;61036;53.224;6.554;2023-02-15T12:28:23;38.63;;;25.17;;
72895;SDS011;61036;53.224;6.554;2023-02-15T12:30:52;39.60;;;24.90;;
72895;SDS011;61036;53.224;6.554;2023-02-15T12:36:02;40.50;;;26.50;;
72895;SDS011;61036;53.224;6.554;2023-02-15T12:38:34;39.60;;;26.63;;
72895;SDS011;61036;53.224;6.554;2023-02-15T12:41:02;44.53;;;26.33;;
72895;SDS011;61036;53.224;6.554;2023-02-15T12:43:36;41.67;;;26.23;;
72895;SDS011;61036;53.224;6.554;2023-02-15T12:49:11;43.10;;;28.47;;
72895;SDS011;61036;53.224;6.554;2023-02-15T12:54:33;42.80;;;28.60;;
72895;SDS011;61036;53.224;6.554;2023-02-15T12:57:26;41.37;;;28.13;;
72895;SDS011;61036;53.224;6.554;2023-02-15T13:05:17;46.97;;;30.37;;
72895;SDS011;61036;53.224;6.554;2023-02-15T13:11:03;47.30;;;29.13;;
72895;SDS011;61036;53.224;6.554;2023-02-15T13:19:02;44.10;;;31.23;;
72895;SDS011;61036;53.224;6.554;2023-02-15T13:21:33;47.03;;;30.97;;
72895;SDS011;61036;53.224;6.554;2023-02-15T13:24:14;44.83;;;31.20;;
72895;SDS011;61036;53.224;6.554;2023-02-15T13:26:46;47.43;;;31.63;;
72895;SDS011;61036;53.224;6.554;2023-02-15T13:31:50;44.60;;;30.53;;
72895;SDS011;61036;53.224;6.554;2023-02-15T13:37:19;48.70;;;31.33;;
72895;SDS011;61036;53.224;6.554;2023-02-15T13:39:55;45.53;;;29.60;;
72895;SDS011;61036;53.224;6.554;2023-02-15T13:45:29;43.87;;;30.23;;
72895;SDS011;61036;53.224;6.554;2023-02-15T13:53:40;45.87;;;30.93;;
72895;SDS011;61036;53.224;6.554;2023-02-15T14:10:23;40.53;;;28.30;;
72895;SDS011;61036;53.224;6.554;2023-02-15T14:15:38;52.23;;;38.60;;
72895;SDS011;61036;53.224;6.554;2023-02-15T14:31:41;41.87;;;28.90;;
72895;SDS011;61036;53.224;6.554;2023-02-15T14:34:17;46.83;;;29.03;;
72895;SDS011;61036;53.224;6.554;2023-02-15T14:36:49;40.77;;;27.47;;
72895;SDS011;61036;53.224;6.554;2023-02-15T14:39:22;40.17;;;27.50;;
72895;SDS011;61036;53.224;6.554;2023-02-15T14:42:23;40.27;;;26.47;;
72895;SDS011;61036;53.224;6.554;2023-02-15T14:47:42;41.87;;;26.17;;
72895;SDS011;61036;53.224;6.554;2023-02-15T14:58:36;38.73;;;25.47;;
72895;SDS011;61036;53.224;6.554;2023-02-15T15:01:03;38.40;;;26.03;;
72895;SDS011;61036;53.224;6.554;2023-02-15T15:03:32;34.70;;;24.67;;
72895;SDS011;61036;53.224;6.554;2023-02-15T15:06:01;39.67;;;25.37;;
72895;SDS011;61036;53.224;6.554;2023-02-15T15:08:31;41.00;;;26.07;;
72895;SDS011;61036;53.224;6.554;2023-02-15T15:13:54;39.67;;;27.13;;
72895;SDS011;61036;53.224;6.554;2023-02-15T15:18:51;38.60;;;25.83;;
72895;SDS011;61036;53.224;6.554;2023-02-15T15:35:34;39.53;;;26.63;;
72895;SDS011;61036;53.224;6.554;2023-02-15T15:46:52;39.87;;;25.63;;
72895;SDS011;61036;53.224;6.554;2023-02-15T15:49:28;38.23;;;24.10;;
72895;SDS011;61036;53.224;6.554;2023-02-15T15:51:56;40.67;;;26.93;;
72895;SDS011;61036;53.224;6.554;2023-02-15T15:54:26;37.13;;;24.83;;
72895;SDS011;61036;53.224;6.554;2023-02-15T15:56:54;39.17;;;26.00;;
72895;SDS011;61036;53.224;6.554;2023-02-15T15:59:23;37.00;;;25.30;;
72895;SDS011;61036;53.224;6.554;2023-02-15T16:01:51;37.07;;;25.57;;
72895;SDS011;61036;53.224;6.554;2023-02-15T16:06:51;41.60;;;27.23;;
72895;SDS011;61036;53.224;6.554;2023-02-15T16:09:21;41.57;;;26.13;;
72895;SDS011;61036;53.224;6.554;2023-02-15T16:11:50;39.07;;;26.60;;
72895;SDS011;61036;53.224;6.554;2023-02-15T16:14:24;39.60;;;26.80;;
72895;SDS011;61036;53.224;6.554;2023-02-15T16:17:01;41.20;;;27.03;;
72895;SDS011;61036;53.224;6.554;2023-02-15T16:19:35;41.03;;;27.50;;
72895;SDS011;61036;53.224;6.554;2023-02-15T16:22:03;39.90;;;26.87;;
72895;SDS011;61036;53.224;6.554;2023-02-15T16:24:41;43.03;;;26.50;;
72895;SDS011;61036;53.224;6.554;2023-02-15T16:27:35;43.40;;;28.30;;
72895;SDS011;61036;53.224;6.554;2023-02-15T16:33:10;44.27;;;27.53;;
72895;SDS011;61036;53.224;6.554;2023-02-15T16:35:38;42.53;;;28.10;;
72895;SDS011;61036;53.224;6.554;2023-02-15T16:38:08;44.30;;;29.57;;
72895;SDS011;61036;53.224;6.554;2023-02-15T16:40:50;42.57;;;28.50;;
72895;SDS011;61036;53.224;6.554;2023-02-15T16:43:24;40.00;;;27.40;;
72895;SDS011;61036;53.224;6.554;2023-02-15T16:45:56;35.80;;;25.87;;
72895;SDS011;61036;53.224;6.554;2023-02-15T16:48:29;41.17;;;28.03;;
72895;SDS011;61036;53.224;6.554;2023-02-15T16:50:56;41.47;;;27.67;;
72895;SDS011;61036;53.224;6.554;2023-02-15T16:53:27;39.37;;;28.37;;
72895;SDS011;61036;53.224;6.554;2023-02-15T16:55:55;42.70;;;29.03;;
72895;SDS011;61036;53.224;6.554;2023-02-15T16:58:26;45.93;;;29.40;;
72895;SDS011;61036;53.224;6.554;2023-02-15T17:00:57;43.67;;;28.43;;
72895;SDS011;61036;53.224;6.554;2023-02-15T17:03:25;44.77;;;30.30;;
72895;SDS011;61036;53.224;6.554;2023-02-15T17:05:52;43.90;;;29.80;;
72895;SDS011;61036;53.224;6.554;2023-02-15T17:08:25;43.77;;;28.93;;
72895;SDS011;61036;53.224;6.554;2023-02-15T17:16:28;45.30;;;28.77;;
72895;SDS011;61036;53.224;6.554;2023-02-15T17:19:18;43.57;;;28.10;;
72895;SDS011;61036;53.224;6.554;2023-02-15T17:21:48;45.17;;;29.33;;
72895;SDS011;61036;53.224;6.554;2023-02-15T17:24:32;43.27;;;28.60;;
72895;SDS011;61036;53.224;6.554;2023-02-15T17:27:10;40.77;;;27.77;;
72895;SDS011;61036;53.224;6.554;2023-02-15T17:29:40;42.97;;;28.17;;
72895;SDS011;61036;53.224;6.554;2023-02-15T17:32:18;40.23;;;28.13;;
72895;SDS011;61036;53.224;6.554;2023-02-15T17:39:52;41.03;;;26.87;;
72895;SDS011;61036;53.224;6.554;2023-02-15T17:42:18;42.50;;;28.07;;
72895;SDS011;61036;53.224;6.554;2023-02-15T17:44:43;45.20;;;28.97;;
72895;SDS011;61036;53.224;6.554;2023-02-15T17:47:11;45.37;;;30.33;;
72895;SDS011;61036;53.224;6.554;2023-02-15T17:49:41;43.83;;;29.27;;
72895;SDS011;61036;53.224;6.554;2023-02-15T17:52:13;44.10;;;29.70;;
72895;SDS011;61036;53.224;6.554;2023-02-15T17:54:39;46.83;;;30.53;;
72895;SDS011;61036;53.224;6.554;2023-02-15T17:57:23;50.77;;;33.83;;
72895;SDS011;61036;53.224;6.554;2023-02-15T17:59:50;48.40;;;31.20;;
72895;SDS011;61036;53.224;6.554;2023-02-15T18:02:37;44.60;;;29.40;;
72895;SDS011;61036;53.224;6.554;2023-02-15T18:05:21;47.00;;;29.30;;
72895;SDS011;61036;53.224;6.554;2023-02-15T18:08:11;45.97;;;29.30;;
72895;SDS011;61036;53.224;6.554;2023-02-15T18:11:00;46.00;;;30.73;;
72895;SDS011;61036;53.224;6.554;2023-02-15T18:13:45;45.50;;;29.10;;
72895;SDS011;61036;53.224;6.554;2023-02-15T18:16:14;46.13;;;29.93;;
72895;SDS011;61036;53.224;6.554;2023-02-15T18:18:42;44.73;;;30.90;;
72895;SDS011;61036;53.224;6.554;2023-02-15T18:21:09;43.73;;;30.30;;
72895;SDS011;61036;53.224;6.554;2023-02-15T18:23:36;47.97;;;31.67;;
72895;SDS011;61036;53.224;6.554;2023-02-15T18:26:04;64.30;;;42.00;;